sensor_id;sensor_type;location;lat;lon;timestamp;P1;durP1;ratioP1;P2;durP2;ratioP2
52608;SDS011;38503;48.544;12.142;2022-11-02T00:01:25;14.43;;;12.80;;
52608;SDS011;38503;48.544;12.142;2022-11-02T00:03:56;14.83;;;12.37;;
52608;SDS011;38503;48.544;12.142;2022-11-02T00:06:23;17.87;;;13.90;;
52608;SDS011;38503;48.544;12.142;2022-11-02T00:08:49;16.90;;;15.07;;
52608;SDS011;38503;48.544;12.142;2022-11-02T00:11:16;17.50;;;15.63;;
52608;SDS011;38503;48.544;12.142;2022-11-02T00:13:43;16.90;;;14.53;;
52608;SDS011;38503;48.544;12.142;2022-11-02T00:16:10;17.10;;;14.87;;
52608;SDS011;38503;48.544;12.142;2022-11-02T00:18:40;17.27;;;14.87;;
52608;SDS011;38503;48.544;12.142;2022-11-02T00:21:08;22.00;;;14.97;;
52608;SDS011;38503;48.544;12.142;2022-11-02T00:23:35;15.37;;;13.77;;
52608;SDS011;38503;48.544;12.142;2022-11-02T00:26:02;17.50;;;14.80;;
52608;SDS011;38503;48.544;12.142;2022-11-02T00:28:29;15.20;;;13.57;;
52608;SDS011;38503;48.544;12.142;2022-11-02T00:30:56;17.13;;;15.03;;
52608;SDS011;38503;48.544;12.142;2022-11-02T00:33:23;18.07;;;14.00;;
52608;SDS011;38503;48.544;12.142;2022-11-02T00:35:50;17.40;;;14.97;;
52608;SDS011;38503;48.544;12.142;2022-11-02T00:38:17;16.90;;;14.20;;
52608;SDS011;38503;48.544;12.142;2022-11-02T00:40:44;16.77;;;14.00;;
52608;SDS011;38503;48.544;12.142;2022-11-02T00:43:11;18.07;;;14.17;;
52608;SDS011;38503;48.544;12.142;2022-11-02T00:45:38;18.07;;;13.40;;
52608;SDS011;38503;48.544;12.142;2022-11-02T00:48:05;15.40;;;13.30;;
52608;SDS011;38503;48.544;12.142;2022-11-02T00:50:32;20.33;;;13.93;;
52608;SDS011;38503;48.544;12.142;2022-11-02T00:52:59;17.37;;;13.30;;
52608;SDS011;38503;48.544;12.142;2022-11-02T00:55:26;16.10;;;13.23;;
52608;SDS011;38503;48.544;12.142;2022-11-02T00:57:53;16.33;;;12.13;;
52608;SDS011;38503;48.544;12.142;2022-11-02T01:00:20;17.60;;;13.50;;
52608;SDS011;38503;48.544;12.142;2022-11-02T01:02:47;16.53;;;12.73;;
52608;SDS011;38503;48.544;12.142;2022-11-02T01:05:14;14.87;;;12.27;;
52608;SDS011;38503;48.544;12.142;2022-11-02T01:07:41;15.67;;;12.13;;
52608;SDS011;38503;48.544;12.142;2022-11-02T01:10:08;15.17;;;11.90;;
52608;SDS011;38503;48.544;12.142;2022-11-02T01:12:37;16.70;;;11.33;;
52608;SDS011;38503;48.544;12.142;2022-11-02T01:15:05;15.60;;;12.03;;
52608;SDS011;38503;48.544;12.142;2022-11-02T01:17:33;15.73;;;11.73;;
52608;SDS011;38503;48.544;12.142;2022-11-02T01:20:00;16.97;;;12.30;;
52608;SDS011;38503;48.544;12.142;2022-11-02T01:22:28;15.07;;;12.60;;
52608;SDS011;38503;48.544;12.142;2022-11-02T01:24:56;17.33;;;12.60;;
52608;SDS011;38503;48.544;12.142;2022-11-02T01:27:22;14.10;;;12.23;;
52608;SDS011;38503;48.544;12.142;2022-11-02T01:29:49;15.70;;;12.77;;
52608;SDS011;38503;48.544;12.142;2022-11-02T01:32:16;18.90;;;13.03;;
52608;SDS011;38503;48.544;12.142;2022-11-02T01:34:43;15.83;;;12.40;;
52608;SDS011;38503;48.544;12.142;2022-11-02T01:37:10;19.50;;;12.73;;
52608;SDS011;38503;48.544;12.142;2022-11-02T01:39:36;16.73;;;13.80;;
52608;SDS011;38503;48.544;12.142;2022-11-02T01:42:04;15.93;;;13.03;;
52608;SDS011;38503;48.544;12.142;2022-11-02T01:44:45;15.47;;;13.47;;
52608;SDS011;38503;48.544;12.142;2022-11-02T01:49:43;23.33;;;14.40;;
52608;SDS011;38503;48.544;12.142;2022-11-02T01:52:17;17.77;;;13.80;;
52608;SDS011;38503;48.544;12.142;2022-11-02T01:55:03;17.10;;;13.23;;
52608;SDS011;38503;48.544;12.142;2022-11-02T01:57:37;16.93;;;14.00;;
52608;SDS011;38503;48.544;12.142;2022-11-02T02:00:07;17.07;;;13.60;;
52608;SDS011;38503;48.544;12.142;2022-11-02T02:02:43;18.07;;;13.70;;
52608;SDS011;38503;48.544;12.142;2022-11-02T02:05:16;14.80;;;12.43;;
52608;SDS011;38503;48.544;12.142;2022-11-02T02:07:45;17.93;;;12.90;;
52608;SDS011;38503;48.544;12.142;2022-11-02T02:10:14;15.23;;;12.10;;
52608;SDS011;38503;48.544;12.142;2022-11-02T02:12:41;14.23;;;12.53;;
52608;SDS011;38503;48.544;12.142;2022-11-02T02:15:08;16.40;;;12.33;;
52608;SDS011;38503;48.544;12.142;2022-11-02T02:27:51;12.40;;;11.10;;
52608;SDS011;38503;48.544;12.142;2022-11-02T02:30:31;12.00;;;10.30;;
52608;SDS011;38503;48.544;12.142;2022-11-02T02:33:04;11.90;;;10.70;;
52608;SDS011;38503;48.544;12.142;2022-11-02T02:38:25;11.87;;;9.77;;
52608;SDS011;38503;48.544;12.142;2022-11-02T02:43:51;12.73;;;11.40;;
52608;SDS011;38503;48.544;12.142;2022-11-02T02:48:53;13.80;;;12.27;;
52608;SDS011;38503;48.544;12.142;2022-11-02T02:51:26;13.13;;;11.43;;
52608;SDS011;38503;48.544;12.142;2022-11-02T02:54:02;15.33;;;11.60;;
52608;SDS011;38503;48.544;12.142;2022-11-02T02:56:35;13.70;;;11.57;;
52608;SDS011;38503;48.544;12.142;2022-11-02T03:01:58;12.23;;;10.93;;
52608;SDS011;38503;48.544;12.142;2022-11-02T03:04:25;13.93;;;11.43;;
52608;SDS011;38503;48.544;12.142;2022-11-02T03:06:54;19.17;;;12.30;;
52608;SDS011;38503;48.544;12.142;2022-11-02T03:17:17;12.10;;;10.80;;
52608;SDS011;38503;48.544;12.142;2022-11-02T03:22:36;13.90;;;10.87;;
52608;SDS011;38503;48.544;12.142;2022-11-02T03:30:43;12.07;;;10.63;;
52608;SDS011;38503;48.544;12.142;2022-11-02T03:35:52;13.73;;;10.23;;
52608;SDS011;38503;48.544;12.142;2022-11-02T03:38:31;14.30;;;10.63;;
52608;SDS011;38503;48.544;12.142;2022-11-02T03:41:03;15.57;;;11.20;;
52608;SDS011;38503;48.544;12.142;2022-11-02T03:43:32;19.40;;;12.13;;
52608;SDS011;38503;48.544;12.142;2022-11-02T03:46:02;17.67;;;12.40;;
52608;SDS011;38503;48.544;12.142;2022-11-02T03:48:33;18.03;;;12.00;;
52608;SDS011;38503;48.544;12.142;2022-11-02T03:51:06;17.63;;;12.07;;
52608;SDS011;38503;48.544;12.142;2022-11-02T03:53:41;14.53;;;11.47;;
52608;SDS011;38503;48.544;12.142;2022-11-02T03:56:18;15.13;;;10.40;;
52608;SDS011;38503;48.544;12.142;2022-11-02T03:58:50;13.27;;;11.00;;
52608;SDS011;38503;48.544;12.142;2022-11-02T04:01:17;13.17;;;11.57;;
52608;SDS011;38503;48.544;12.142;2022-11-02T04:03:46;14.23;;;10.47;;
52608;SDS011;38503;48.544;12.142;2022-11-02T04:06:13;12.77;;;10.10;;
52608;SDS011;38503;48.544;12.142;2022-11-02T04:08:45;13.57;;;11.87;;
52608;SDS011;38503;48.544;12.142;2022-11-02T04:11:13;21.80;;;16.53;;
52608;SDS011;38503;48.544;12.142;2022-11-02T04:14:04;25.13;;;18.57;;
52608;SDS011;38503;48.544;12.142;2022-11-02T04:16:50;22.43;;;16.40;;
52608;SDS011;38503;48.544;12.142;2022-11-02T04:19:37;18.37;;;13.40;;
52608;SDS011;38503;48.544;12.142;2022-11-02T04:22:03;16.27;;;13.03;;
52608;SDS011;38503;48.544;12.142;2022-11-02T04:24:49;15.40;;;12.37;;
52608;SDS011;38503;48.544;12.142;2022-11-02T04:27:34;13.17;;;11.17;;
52608;SDS011;38503;48.544;12.142;2022-11-02T04:30:01;14.73;;;11.60;;
52608;SDS011;38503;48.544;12.142;2022-11-02T04:32:28;15.53;;;11.33;;
52608;SDS011;38503;48.544;12.142;2022-11-02T04:35:14;12.10;;;10.50;;
52608;SDS011;38503;48.544;12.142;2022-11-02T04:37:41;15.27;;;12.03;;
52608;SDS011;38503;48.544;12.142;2022-11-02T04:40:30;11.77;;;10.17;;
52608;SDS011;38503;48.544;12.142;2022-11-02T04:42:57;12.30;;;11.00;;
52608;SDS011;38503;48.544;12.142;2022-11-02T04:45:23;15.33;;;11.30;;
52608;SDS011;38503;48.544;12.142;2022-11-02T04:47:50;13.73;;;10.97;;
52608;SDS011;38503;48.544;12.142;2022-11-02T04:50:17;12.30;;;10.83;;
52608;SDS011;38503;48.544;12.142;2022-11-02T04:52:44;12.47;;;10.20;;
52608;SDS011;38503;48.544;12.142;2022-11-02T04:55:11;13.87;;;10.97;;
52608;SDS011;38503;48.544;12.142;2022-11-02T04:57:42;16.73;;;12.00;;
52608;SDS011;38503;48.544;12.142;2022-11-02T05:00:10;17.33;;;13.87;;
52608;SDS011;38503;48.544;12.142;2022-11-02T05:02:37;20.20;;;13.80;;
52608;SDS011;38503;48.544;12.142;2022-11-02T05:05:07;18.50;;;14.20;;
52608;SDS011;38503;48.544;12.142;2022-11-02T05:07:34;17.07;;;13.93;;
52608;SDS011;38503;48.544;12.142;2022-11-02T05:10:01;15.83;;;13.37;;
52608;SDS011;38503;48.544;12.142;2022-11-02T05:12:28;17.90;;;14.03;;
52608;SDS011;38503;48.544;12.142;2022-11-02T05:14:54;22.17;;;14.17;;
52608;SDS011;38503;48.544;12.142;2022-11-02T05:17:24;19.10;;;14.13;;
52608;SDS011;38503;48.544;12.142;2022-11-02T05:19:51;19.50;;;14.63;;
52608;SDS011;38503;48.544;12.142;2022-11-02T05:22:18;17.97;;;13.43;;
52608;SDS011;38503;48.544;12.142;2022-11-02T05:24:48;21.27;;;14.47;;
52608;SDS011;38503;48.544;12.142;2022-11-02T05:27:17;25.37;;;13.73;;
52608;SDS011;38503;48.544;12.142;2022-11-02T05:29:47;23.07;;;14.33;;
52608;SDS011;38503;48.544;12.142;2022-11-02T05:32:13;17.17;;;13.57;;
52608;SDS011;38503;48.544;12.142;2022-11-02T05:34:44;19.60;;;13.33;;
52608;SDS011;38503;48.544;12.142;2022-11-02T05:37:11;16.80;;;13.03;;
52608;SDS011;38503;48.544;12.142;2022-11-02T05:39:38;21.00;;;15.47;;
52608;SDS011;38503;48.544;12.142;2022-11-02T05:42:08;19.87;;;17.70;;
52608;SDS011;38503;48.544;12.142;2022-11-02T05:44:35;19.27;;;15.27;;
52608;SDS011;38503;48.544;12.142;2022-11-02T05:47:02;14.90;;;13.03;;
52608;SDS011;38503;48.544;12.142;2022-11-02T05:49:29;17.10;;;12.57;;
52608;SDS011;38503;48.544;12.142;2022-11-02T05:51:56;14.03;;;11.80;;
52608;SDS011;38503;48.544;12.142;2022-11-02T05:54:23;15.10;;;11.90;;
52608;SDS011;38503;48.544;12.142;2022-11-02T05:56:50;14.83;;;11.00;;
52608;SDS011;38503;48.544;12.142;2022-11-02T05:59:16;14.97;;;11.93;;
52608;SDS011;38503;48.544;12.142;2022-11-02T06:01:43;14.60;;;11.60;;
52608;SDS011;38503;48.544;12.142;2022-11-02T06:04:10;15.57;;;12.03;;
52608;SDS011;38503;48.544;12.142;2022-11-02T06:06:37;14.93;;;11.70;;
52608;SDS011;38503;48.544;12.142;2022-11-02T06:09:04;18.00;;;12.50;;
52608;SDS011;38503;48.544;12.142;2022-11-02T06:11:32;17.53;;;12.00;;
52608;SDS011;38503;48.544;12.142;2022-11-02T06:13:59;16.47;;;11.87;;
52608;SDS011;38503;48.544;12.142;2022-11-02T06:16:28;14.70;;;11.83;;
52608;SDS011;38503;48.544;12.142;2022-11-02T06:19:07;12.77;;;11.17;;
52608;SDS011;38503;48.544;12.142;2022-11-02T06:21:37;13.83;;;10.40;;
52608;SDS011;38503;48.544;12.142;2022-11-02T06:24:08;13.20;;;10.73;;
52608;SDS011;38503;48.544;12.142;2022-11-02T06:26:35;16.30;;;11.33;;
52608;SDS011;38503;48.544;12.142;2022-11-02T06:29:06;12.57;;;10.17;;
52608;SDS011;38503;48.544;12.142;2022-11-02T06:31:45;15.13;;;10.30;;
52608;SDS011;38503;48.544;12.142;2022-11-02T06:34:12;12.40;;;10.53;;
52608;SDS011;38503;48.544;12.142;2022-11-02T06:36:38;13.47;;;10.40;;
52608;SDS011;38503;48.544;12.142;2022-11-02T06:39:05;18.97;;;15.23;;
52608;SDS011;38503;48.544;12.142;2022-11-02T06:41:35;13.20;;;9.73;;
52608;SDS011;38503;48.544;12.142;2022-11-02T06:44:01;15.00;;;12.70;;
52608;SDS011;38503;48.544;12.142;2022-11-02T06:46:28;12.90;;;10.33;;
52608;SDS011;38503;48.544;12.142;2022-11-02T06:48:55;12.70;;;9.73;;
52608;SDS011;38503;48.544;12.142;2022-11-02T06:51:22;11.57;;;10.10;;
52608;SDS011;38503;48.544;12.142;2022-11-02T06:53:49;12.57;;;10.27;;
52608;SDS011;38503;48.544;12.142;2022-11-02T06:56:16;10.90;;;9.30;;
52608;SDS011;38503;48.544;12.142;2022-11-02T06:58:43;13.93;;;10.53;;
52608;SDS011;38503;48.544;12.142;2022-11-02T07:01:10;15.33;;;10.30;;
52608;SDS011;38503;48.544;12.142;2022-11-02T07:03:38;15.47;;;9.73;;
52608;SDS011;38503;48.544;12.142;2022-11-02T07:06:08;14.30;;;10.40;;
52608;SDS011;38503;48.544;12.142;2022-11-02T07:08:39;11.87;;;10.00;;
52608;SDS011;38503;48.544;12.142;2022-11-02T07:11:11;10.20;;;8.43;;
52608;SDS011;38503;48.544;12.142;2022-11-02T07:13:39;13.37;;;8.83;;
52608;SDS011;38503;48.544;12.142;2022-11-02T07:16:06;9.70;;;7.70;;
52608;SDS011;38503;48.544;12.142;2022-11-02T07:18:33;9.00;;;7.57;;
52608;SDS011;38503;48.544;12.142;2022-11-02T07:21:00;8.20;;;6.90;;
52608;SDS011;38503;48.544;12.142;2022-11-02T07:23:29;6.97;;;6.17;;
52608;SDS011;38503;48.544;12.142;2022-11-02T07:25:56;7.57;;;5.77;;
52608;SDS011;38503;48.544;12.142;2022-11-02T07:28:22;7.00;;;6.10;;
52608;SDS011;38503;48.544;12.142;2022-11-02T07:30:52;7.63;;;5.37;;
52608;SDS011;38503;48.544;12.142;2022-11-02T07:33:20;7.50;;;6.60;;
52608;SDS011;38503;48.544;12.142;2022-11-02T07:35:47;7.63;;;6.93;;
52608;SDS011;38503;48.544;12.142;2022-11-02T07:38:13;8.03;;;7.23;;
52608;SDS011;38503;48.544;12.142;2022-11-02T07:40:40;9.00;;;6.97;;
52608;SDS011;38503;48.544;12.142;2022-11-02T07:43:07;10.57;;;7.03;;
52608;SDS011;38503;48.544;12.142;2022-11-02T07:45:35;11.47;;;7.63;;
52608;SDS011;38503;48.544;12.142;2022-11-02T07:48:01;8.70;;;6.83;;
52608;SDS011;38503;48.544;12.142;2022-11-02T07:50:28;8.60;;;7.13;;
52608;SDS011;38503;48.544;12.142;2022-11-02T07:52:56;7.50;;;6.37;;
52608;SDS011;38503;48.544;12.142;2022-11-02T07:55:26;10.93;;;7.00;;
52608;SDS011;38503;48.544;12.142;2022-11-02T07:58:02;8.80;;;7.33;;
52608;SDS011;38503;48.544;12.142;2022-11-02T08:00:34;8.93;;;7.37;;
52608;SDS011;38503;48.544;12.142;2022-11-02T08:03:03;11.30;;;6.50;;
52608;SDS011;38503;48.544;12.142;2022-11-02T08:05:36;7.73;;;5.90;;
52608;SDS011;38503;48.544;12.142;2022-11-02T08:08:05;10.00;;;6.70;;
52608;SDS011;38503;48.544;12.142;2022-11-02T08:10:34;8.90;;;6.40;;
52608;SDS011;38503;48.544;12.142;2022-11-02T08:13:07;8.97;;;6.50;;
52608;SDS011;38503;48.544;12.142;2022-11-02T08:15:38;8.43;;;5.50;;
52608;SDS011;38503;48.544;12.142;2022-11-02T08:18:12;8.13;;;6.50;;
52608;SDS011;38503;48.544;12.142;2022-11-02T08:20:40;8.07;;;6.07;;
52608;SDS011;38503;48.544;12.142;2022-11-02T08:23:08;10.20;;;6.10;;
52608;SDS011;38503;48.544;12.142;2022-11-02T08:25:36;8.57;;;6.10;;
52608;SDS011;38503;48.544;12.142;2022-11-02T08:28:04;6.80;;;5.93;;
52608;SDS011;38503;48.544;12.142;2022-11-02T08:30:33;9.03;;;6.30;;
52608;SDS011;38503;48.544;12.142;2022-11-02T08:33:04;7.73;;;5.63;;
52608;SDS011;38503;48.544;12.142;2022-11-02T08:35:32;7.33;;;6.07;;
52608;SDS011;38503;48.544;12.142;2022-11-02T08:38:01;8.23;;;5.47;;
52608;SDS011;38503;48.544;12.142;2022-11-02T08:40:32;6.03;;;5.33;;
52608;SDS011;38503;48.544;12.142;2022-11-02T08:43:05;11.00;;;5.60;;
52608;SDS011;38503;48.544;12.142;2022-11-02T08:45:34;7.17;;;5.03;;
52608;SDS011;38503;48.544;12.142;2022-11-02T08:48:23;7.60;;;6.10;;
52608;SDS011;38503;48.544;12.142;2022-11-02T08:50:51;7.53;;;6.00;;
52608;SDS011;38503;48.544;12.142;2022-11-02T08:53:20;13.90;;;7.80;;
52608;SDS011;38503;48.544;12.142;2022-11-02T08:55:48;11.73;;;9.27;;
52608;SDS011;38503;48.544;12.142;2022-11-02T08:58:21;8.90;;;7.57;;
52608;SDS011;38503;48.544;12.142;2022-11-02T09:00:51;9.43;;;6.70;;
52608;SDS011;38503;48.544;12.142;2022-11-02T09:03:18;8.37;;;5.50;;
52608;SDS011;38503;48.544;12.142;2022-11-02T09:05:55;6.27;;;5.67;;
52608;SDS011;38503;48.544;12.142;2022-11-02T09:08:28;8.37;;;5.97;;
52608;SDS011;38503;48.544;12.142;2022-11-02T09:11:00;5.87;;;5.30;;
52608;SDS011;38503;48.544;12.142;2022-11-02T09:13:29;8.13;;;5.40;;
52608;SDS011;38503;48.544;12.142;2022-11-02T09:15:56;6.67;;;5.60;;
52608;SDS011;38503;48.544;12.142;2022-11-02T09:18:28;8.23;;;5.40;;
52608;SDS011;38503;48.544;12.142;2022-11-02T09:21:00;7.23;;;6.33;;
52608;SDS011;38503;48.544;12.142;2022-11-02T09:23:31;8.27;;;5.80;;
52608;SDS011;38503;48.544;12.142;2022-11-02T09:25:58;7.10;;;5.67;;
52608;SDS011;38503;48.544;12.142;2022-11-02T09:28:25;8.47;;;5.67;;
52608;SDS011;38503;48.544;12.142;2022-11-02T09:30:52;8.17;;;5.70;;
52608;SDS011;38503;48.544;12.142;2022-11-02T09:33:22;7.20;;;5.30;;
52608;SDS011;38503;48.544;12.142;2022-11-02T09:35:49;7.80;;;5.70;;
52608;SDS011;38503;48.544;12.142;2022-11-02T09:38:16;9.10;;;6.70;;
52608;SDS011;38503;48.544;12.142;2022-11-02T09:40:45;11.03;;;5.83;;
52608;SDS011;38503;48.544;12.142;2022-11-02T09:46:38;8.43;;;4.83;;
52608;SDS011;38503;48.544;12.142;2022-11-02T09:49:16;6.03;;;4.73;;
52608;SDS011;38503;48.544;12.142;2022-11-02T09:51:49;7.33;;;4.67;;
52608;SDS011;38503;48.544;12.142;2022-11-02T09:57:08;7.13;;;5.03;;
52608;SDS011;38503;48.544;12.142;2022-11-02T09:59:51;6.20;;;4.83;;
52608;SDS011;38503;48.544;12.142;2022-11-02T10:13:13;9.43;;;5.27;;
52608;SDS011;38503;48.544;12.142;2022-11-02T10:16:43;10.70;;;8.50;;
52608;SDS011;38503;48.544;12.142;2022-11-02T10:18:51;8.93;;;5.40;;
52608;SDS011;38503;48.544;12.142;2022-11-02T10:21:40;8.73;;;4.83;;
52608;SDS011;38503;48.544;12.142;2022-11-02T10:26:48;8.50;;;6.27;;
52608;SDS011;38503;48.544;12.142;2022-11-02T10:29:20;7.30;;;5.20;;
52608;SDS011;38503;48.544;12.142;2022-11-02T10:32:09;7.47;;;5.77;;
52608;SDS011;38503;48.544;12.142;2022-11-02T10:34:41;13.80;;;8.73;;
52608;SDS011;38503;48.544;12.142;2022-11-02T10:40:22;5.17;;;4.00;;
52608;SDS011;38503;48.544;12.142;2022-11-02T10:43:04;6.30;;;4.83;;
52608;SDS011;38503;48.544;12.142;2022-11-02T10:51:09;8.00;;;4.80;;
52608;SDS011;38503;48.544;12.142;2022-11-02T10:53:41;7.17;;;4.67;;
52608;SDS011;38503;48.544;12.142;2022-11-02T10:56:21;9.20;;;5.27;;
52608;SDS011;38503;48.544;12.142;2022-11-02T11:04:30;8.00;;;4.10;;
52608;SDS011;38503;48.544;12.142;2022-11-02T11:07:02;7.27;;;4.13;;
52608;SDS011;38503;48.544;12.142;2022-11-02T11:09:50;4.80;;;3.40;;
52608;SDS011;38503;48.544;12.142;2022-11-02T11:12:29;7.17;;;3.63;;
52608;SDS011;38503;48.544;12.142;2022-11-02T11:15:06;5.60;;;3.10;;
52608;SDS011;38503;48.544;12.142;2022-11-02T11:18:09;7.83;;;3.30;;
52608;SDS011;38503;48.544;12.142;2022-11-02T11:20:58;8.40;;;3.50;;
52608;SDS011;38503;48.544;12.142;2022-11-02T11:23:26;6.00;;;3.10;;
52608;SDS011;38503;48.544;12.142;2022-11-02T11:28:31;7.93;;;2.43;;
52608;SDS011;38503;48.544;12.142;2022-11-02T11:31:13;4.77;;;2.27;;
52608;SDS011;38503;48.544;12.142;2022-11-02T11:33:45;3.70;;;2.10;;
52608;SDS011;38503;48.544;12.142;2022-11-02T11:36:20;6.90;;;2.27;;
52608;SDS011;38503;48.544;12.142;2022-11-02T11:38:54;5.20;;;2.60;;
52608;SDS011;38503;48.544;12.142;2022-11-02T11:41:26;4.20;;;2.40;;
52608;SDS011;38503;48.544;12.142;2022-11-02T11:43:56;6.13;;;2.40;;
52608;SDS011;38503;48.544;12.142;2022-11-02T11:46:23;6.83;;;1.93;;
52608;SDS011;38503;48.544;12.142;2022-11-02T11:49:11;7.17;;;2.70;;
52608;SDS011;38503;48.544;12.142;2022-11-02T11:52:10;5.13;;;2.30;;
52608;SDS011;38503;48.544;12.142;2022-11-02T11:54:51;4.33;;;2.00;;
52608;SDS011;38503;48.544;12.142;2022-11-02T12:00:41;9.23;;;2.67;;
52608;SDS011;38503;48.544;12.142;2022-11-02T12:03:05;3.53;;;2.20;;
52608;SDS011;38503;48.544;12.142;2022-11-02T12:05:45;6.73;;;2.40;;
52608;SDS011;38503;48.544;12.142;2022-11-02T12:08:26;6.63;;;2.30;;
52608;SDS011;38503;48.544;12.142;2022-11-02T12:13:53;6.10;;;1.80;;
52608;SDS011;38503;48.544;12.142;2022-11-02T12:19:09;5.47;;;1.90;;
52608;SDS011;38503;48.544;12.142;2022-11-02T12:22:28;1.90;;;1.70;;
52608;SDS011;38503;48.544;12.142;2022-11-02T12:28:21;2.23;;;1.40;;
52608;SDS011;38503;48.544;12.142;2022-11-02T12:41:03;3.77;;;1.60;;
52608;SDS011;38503;48.544;12.142;2022-11-02T12:43:43;2.80;;;1.77;;
52608;SDS011;38503;48.544;12.142;2022-11-02T12:51:50;2.63;;;1.50;;
52608;SDS011;38503;48.544;12.142;2022-11-02T12:54:56;3.53;;;1.77;;
52608;SDS011;38503;48.544;12.142;2022-11-02T12:57:26;3.70;;;1.73;;
52608;SDS011;38503;48.544;12.142;2022-11-02T13:00:03;3.10;;;1.70;;
52608;SDS011;38503;48.544;12.142;2022-11-02T13:02:40;3.47;;;1.47;;
52608;SDS011;38503;48.544;12.142;2022-11-02T13:05:30;3.83;;;1.70;;
52608;SDS011;38503;48.544;12.142;2022-11-02T13:10:38;3.60;;;1.47;;
52608;SDS011;38503;48.544;12.142;2022-11-02T13:13:16;3.60;;;1.70;;
52608;SDS011;38503;48.544;12.142;2022-11-02T13:15:59;3.33;;;1.50;;
52608;SDS011;38503;48.544;12.142;2022-11-02T13:18:30;2.77;;;1.60;;
52608;SDS011;38503;48.544;12.142;2022-11-02T13:21:03;3.90;;;1.50;;
52608;SDS011;38503;48.544;12.142;2022-11-02T13:26:04;6.03;;;1.77;;
52608;SDS011;38503;48.544;12.142;2022-11-02T13:28:40;4.50;;;1.70;;
52608;SDS011;38503;48.544;12.142;2022-11-02T13:31:13;4.03;;;1.50;;
52608;SDS011;38503;48.544;12.142;2022-11-02T13:33:46;3.83;;;1.67;;
52608;SDS011;38503;48.544;12.142;2022-11-02T13:36:15;3.80;;;1.63;;
52608;SDS011;38503;48.544;12.142;2022-11-02T13:39:02;2.13;;;1.43;;
52608;SDS011;38503;48.544;12.142;2022-11-02T13:49:54;5.17;;;2.13;;
52608;SDS011;38503;48.544;12.142;2022-11-02T13:52:26;4.10;;;2.00;;
52608;SDS011;38503;48.544;12.142;2022-11-02T13:55:13;6.60;;;4.07;;
52608;SDS011;38503;48.544;12.142;2022-11-02T13:57:48;3.07;;;2.20;;
52608;SDS011;38503;48.544;12.142;2022-11-02T14:02:54;3.00;;;1.90;;
52608;SDS011;38503;48.544;12.142;2022-11-02T14:05:34;5.93;;;2.27;;
52608;SDS011;38503;48.544;12.142;2022-11-02T14:08:09;5.83;;;2.70;;
52608;SDS011;38503;48.544;12.142;2022-11-02T14:10:43;5.40;;;1.90;;
52608;SDS011;38503;48.544;12.142;2022-11-02T14:13:14;4.80;;;2.03;;
52608;SDS011;38503;48.544;12.142;2022-11-02T14:15:42;7.70;;;2.10;;
52608;SDS011;38503;48.544;12.142;2022-11-02T14:18:13;6.90;;;2.80;;
52608;SDS011;38503;48.544;12.142;2022-11-02T14:36:48;6.23;;;2.60;;
52608;SDS011;38503;48.544;12.142;2022-11-02T14:42:10;4.40;;;2.60;;
52608;SDS011;38503;48.544;12.142;2022-11-02T14:45:08;6.50;;;2.90;;
52608;SDS011;38503;48.544;12.142;2022-11-02T14:47:40;5.77;;;2.80;;
52608;SDS011;38503;48.544;12.142;2022-11-02T14:50:13;7.87;;;2.47;;
52608;SDS011;38503;48.544;12.142;2022-11-02T14:52:51;4.33;;;1.90;;
52608;SDS011;38503;48.544;12.142;2022-11-02T14:55:27;9.83;;;2.80;;
52608;SDS011;38503;48.544;12.142;2022-11-02T15:08:30;8.47;;;2.90;;
52608;SDS011;38503;48.544;12.142;2022-11-02T15:19:36;7.20;;;3.13;;
52608;SDS011;38503;48.544;12.142;2022-11-02T15:25:00;5.53;;;3.13;;
52608;SDS011;38503;48.544;12.142;2022-11-02T15:27:50;6.53;;;3.10;;
52608;SDS011;38503;48.544;12.142;2022-11-02T15:30:21;6.93;;;2.90;;
52608;SDS011;38503;48.544;12.142;2022-11-02T15:33:03;4.93;;;2.40;;
52608;SDS011;38503;48.544;12.142;2022-11-02T15:35:32;6.70;;;2.83;;
52608;SDS011;38503;48.544;12.142;2022-11-02T15:38:03;7.03;;;3.20;;
52608;SDS011;38503;48.544;12.142;2022-11-02T15:55:07;10.57;;;4.10;;
52608;SDS011;38503;48.544;12.142;2022-11-02T16:00:26;7.67;;;4.73;;
52608;SDS011;38503;48.544;12.142;2022-11-02T16:02:59;12.80;;;5.77;;
52608;SDS011;38503;48.544;12.142;2022-11-02T16:05:33;11.50;;;4.93;;
52608;SDS011;38503;48.544;12.142;2022-11-02T16:08:21;9.73;;;5.07;;
52608;SDS011;38503;48.544;12.142;2022-11-02T16:11:01;9.37;;;4.77;;
52608;SDS011;38503;48.544;12.142;2022-11-02T16:13:40;10.07;;;4.20;;
52608;SDS011;38503;48.544;12.142;2022-11-02T16:16:26;9.33;;;4.83;;
52608;SDS011;38503;48.544;12.142;2022-11-02T16:19:00;10.27;;;6.40;;
52608;SDS011;38503;48.544;12.142;2022-11-02T16:21:30;12.73;;;6.33;;
52608;SDS011;38503;48.544;12.142;2022-11-02T16:23:57;10.07;;;5.97;;
52608;SDS011;38503;48.544;12.142;2022-11-02T16:26:25;10.27;;;5.53;;
52608;SDS011;38503;48.544;12.142;2022-11-02T16:28:55;11.03;;;5.87;;
52608;SDS011;38503;48.544;12.142;2022-11-02T16:31:24;10.17;;;6.43;;
52608;SDS011;38503;48.544;12.142;2022-11-02T16:34:01;10.57;;;6.47;;
52608;SDS011;38503;48.544;12.142;2022-11-02T16:36:35;10.77;;;6.30;;
52608;SDS011;38503;48.544;12.142;2022-11-02T16:39:12;11.33;;;6.10;;
52608;SDS011;38503;48.544;12.142;2022-11-02T16:41:45;9.67;;;6.63;;
52608;SDS011;38503;48.544;12.142;2022-11-02T16:44:23;13.47;;;7.10;;
52608;SDS011;38503;48.544;12.142;2022-11-02T16:46:57;12.43;;;7.03;;
52608;SDS011;38503;48.544;12.142;2022-11-02T16:49:29;14.80;;;7.70;;
52608;SDS011;38503;48.544;12.142;2022-11-02T16:52:00;15.43;;;9.30;;
52608;SDS011;38503;48.544;12.142;2022-11-02T16:54:43;16.77;;;8.60;;
52608;SDS011;38503;48.544;12.142;2022-11-02T16:59:58;13.07;;;8.63;;
52608;SDS011;38503;48.544;12.142;2022-11-02T17:02:35;53.53;;;30.80;;
52608;SDS011;38503;48.544;12.142;2022-11-02T17:05:25;22.13;;;13.27;;
52608;SDS011;38503;48.544;12.142;2022-11-02T17:10:34;17.90;;;11.00;;
52608;SDS011;38503;48.544;12.142;2022-11-02T17:13:04;22.13;;;13.57;;
52608;SDS011;38503;48.544;12.142;2022-11-02T17:15:49;23.23;;;13.30;;
52608;SDS011;38503;48.544;12.142;2022-11-02T17:20:47;37.23;;;21.93;;
52608;SDS011;38503;48.544;12.142;2022-11-02T17:23:35;27.33;;;15.47;;
52608;SDS011;38503;48.544;12.142;2022-11-02T17:28:47;33.93;;;19.87;;
52608;SDS011;38503;48.544;12.142;2022-11-02T17:34:01;20.03;;;12.87;;
52608;SDS011;38503;48.544;12.142;2022-11-02T17:36:41;20.47;;;12.53;;
52608;SDS011;38503;48.544;12.142;2022-11-02T17:39:15;18.50;;;13.80;;
52608;SDS011;38503;48.544;12.142;2022-11-02T17:41:54;24.37;;;13.93;;
52608;SDS011;38503;48.544;12.142;2022-11-02T17:44:41;24.17;;;15.00;;
52608;SDS011;38503;48.544;12.142;2022-11-02T17:47:11;29.10;;;19.70;;
52608;SDS011;38503;48.544;12.142;2022-11-02T17:49:39;27.63;;;18.67;;
52608;SDS011;38503;48.544;12.142;2022-11-02T17:52:08;25.97;;;18.87;;
52608;SDS011;38503;48.544;12.142;2022-11-02T17:54:38;29.73;;;18.73;;
52608;SDS011;38503;48.544;12.142;2022-11-02T17:57:08;27.33;;;19.10;;
52608;SDS011;38503;48.544;12.142;2022-11-02T17:59:38;24.80;;;14.60;;
52608;SDS011;38503;48.544;12.142;2022-11-02T18:02:10;21.63;;;15.50;;
52608;SDS011;38503;48.544;12.142;2022-11-02T18:04:38;17.53;;;13.07;;